Garey, California
Current Conditions -  °F | °C
As of 4:51 PM on Monday 26 Jan 2015 (Local Time) from KSMX Reporting Station
Broken Clouds Broken Clouds  
Wind Chill: 71°   Ceiling: 12000
Heat Index: 71°   Visibility: 10mi
Dew Point: 36°   Wind: 0mph
Humidity: 28%   Direction: NA
Pressure: 29.97"   Gusts: NA
Location:  34.9452°N, 120.389°W
Report Text: KSMX 270051Z COR 00000KT 10SM BKN120 22/02 A2997 RMK AO2 SLP151 T02170022 $
Loading
Personal Weather Stations






























Interactive Weather Map New forecast layout! Learn more

10-Day Weather Forecast

Advertisements
Track Severe Weather on mobile